New Glarus, Wisconsin
Current Conditions -  °F | °C
As of 5:55 PM on Monday 20 Oct 2014 (Local Time) from KEFT Reporting Station
Broken Clouds Broken Clouds  
Wind Chill: 54°   Ceiling: 5000
Heat Index: 54°   Visibility: 10mi
Dew Point: 43°   Wind: 7mph
Humidity: 67%   Direction: 20°NNE
Pressure: 29.95"   Gusts: NA
Location:  42.81°N, 89.64°W
Report Text: KEFT 202255Z AUTO 02006KT 10SM BKN050 12/06 A2995 RMK AO2
Loading
Personal Weather Stations






























Interactive Weather Map
Tropical Storm Tracking
New forecast layout! Learn more

10-Day Weather Forecast

Advertisements
Track Severe Weather on mobile